createdAt,value
2023-04-22T00:01:53.062Z,94.00
2023-04-22T00:04:41.798Z,94.40
2023-04-22T00:07:28.414Z,94.20
2023-04-22T00:10:15.356Z,94.20
2023-04-22T00:13:01.792Z,94.30
2023-04-22T00:15:48.209Z,94.40
2023-04-22T00:18:37.497Z,94.60
2023-04-22T00:21:24.014Z,94.70
2023-04-22T00:24:10.614Z,94.80
2023-04-22T00:26:57.735Z,94.90
2023-04-22T00:29:44.369Z,95.00
2023-04-22T00:32:30.825Z,95.10
2023-04-22T00:35:18.843Z,95.10
2023-04-22T00:38:05.435Z,95.10
2023-04-22T00:40:52.087Z,95.30
2023-04-22T00:43:38.609Z,95.40
2023-04-22T00:46:26.215Z,95.30
2023-04-22T00:49:12.851Z,95.60
2023-04-22T00:52:00.572Z,95.70
2023-04-22T00:54:48.199Z,95.50
2023-04-22T00:57:36.793Z,95.60
2023-04-22T01:00:27.177Z,96.00
2023-04-22T01:03:15.272Z,95.90
2023-04-22T01:06:01.995Z,96.10
2023-04-22T01:08:49.890Z,96.20
2023-04-22T01:11:36.984Z,96.50
2023-04-22T01:14:23.810Z,96.30
2023-04-22T01:17:12.344Z,96.50
2023-04-22T01:19:59.508Z,96.60
2023-04-22T01:22:47.804Z,96.50
2023-04-22T01:25:35.832Z,96.60
2023-04-22T01:28:22.725Z,96.70
2023-04-22T01:31:09.758Z,96.70
2023-04-22T01:33:56.384Z,96.70
2023-04-22T01:36:42.790Z,96.90
2023-04-22T01:39:30.082Z,96.80
2023-04-22T01:42:18.072Z,97.00
2023-04-22T01:45:05.652Z,97.00
2023-04-22T01:47:52.334Z,97.00
2023-04-22T01:50:39.224Z,97.00
2023-04-22T01:53:26.150Z,97.00
2023-04-22T01:56:12.575Z,97.20
2023-04-22T01:59:00.678Z,97.10
2023-04-22T02:01:47.667Z,97.30
2023-04-22T02:04:34.747Z,97.10
2023-04-22T02:07:21.447Z,97.50
2023-04-22T02:10:09.456Z,97.40
2023-04-22T02:12:56.241Z,97.60
2023-04-22T02:15:44.147Z,97.60
2023-04-22T02:18:30.789Z,97.70
2023-04-22T02:21:17.662Z,97.90
2023-04-22T02:24:04.710Z,97.90
2023-04-22T02:26:51.235Z,97.90
2023-04-22T02:29:38.089Z,98.00
2023-04-22T02:32:26.006Z,98.10
2023-04-22T02:35:12.965Z,98.00
2023-04-22T02:37:59.449Z,98.30
2023-04-22T02:40:45.924Z,98.30
2023-04-22T02:43:32.315Z,98.30
2023-04-22T02:46:18.780Z,98.30
2023-04-22T02:49:07.050Z,98.40
2023-04-22T02:51:53.780Z,98.40
2023-04-22T02:54:40.075Z,98.60
2023-04-22T02:57:26.578Z,98.60
2023-04-22T03:00:13.724Z,98.70
2023-04-22T03:03:00.310Z,98.90
2023-04-22T03:05:48.344Z,99.10
2023-04-22T03:08:34.682Z,99.10
2023-04-22T03:11:21.171Z,99.10
2023-04-22T03:14:07.489Z,99.10
2023-04-22T03:16:53.989Z,99.20
2023-04-22T03:19:41.325Z,99.40
2023-04-22T03:22:29.440Z,99.40
2023-04-22T03:25:15.987Z,99.40
2023-04-22T03:28:02.216Z,99.70
2023-04-22T03:30:48.835Z,99.70
2023-04-22T03:33:35.194Z,99.90
2023-04-22T03:36:21.567Z,99.90
2023-04-22T03:39:09.662Z,99.90
2023-04-22T03:41:56.030Z,99.90
2023-04-22T03:44:42.488Z,99.90
2023-04-22T03:47:29.162Z,99.90
2023-04-22T03:50:15.928Z,99.90
2023-04-22T03:53:02.682Z,99.90
2023-04-22T03:55:50.377Z,99.90
2023-04-22T03:58:36.996Z,99.90
2023-04-22T04:01:23.665Z,99.90
2023-04-22T04:04:10.559Z,99.90
2023-04-22T04:06:57.591Z,99.90
2023-04-22T04:09:44.152Z,99.90
2023-04-22T04:12:31.955Z,99.90
2023-04-22T04:15:18.938Z,99.90
2023-04-22T04:18:05.521Z,99.90
2023-04-22T04:20:52.074Z,99.90
2023-04-22T04:23:38.915Z,99.90
2023-04-22T04:26:25.244Z,99.90
2023-04-22T04:29:13.757Z,99.90
2023-04-22T04:32:00.466Z,99.90
2023-04-22T04:34:46.837Z,99.90
2023-04-22T04:37:33.510Z,99.90
2023-04-22T04:40:20.074Z,99.90
2023-04-22T04:43:08.854Z,99.90
2023-04-22T04:45:57.149Z,99.90
2023-04-22T04:48:46.055Z,99.90
2023-04-22T04:51:33.302Z,99.90
2023-04-22T04:54:19.934Z,99.90
2023-04-22T04:57:06.664Z,99.90
2023-04-22T04:59:53.454Z,99.90
2023-04-22T05:02:41.450Z,99.90
2023-04-22T05:05:28.965Z,99.90
2023-04-22T05:08:15.288Z,99.90
2023-04-22T05:11:01.697Z,99.90
2023-04-22T05:13:48.052Z,99.90
2023-04-22T05:16:34.792Z,99.90
2023-04-22T05:19:22.788Z,99.90
2023-04-22T05:22:09.460Z,99.90
2023-04-22T05:24:55.845Z,99.90
2023-04-22T05:27:42.828Z,99.90
2023-04-22T05:30:29.211Z,99.90
2023-04-22T05:33:15.851Z,99.90
2023-04-22T05:36:04.079Z,99.90
2023-04-22T05:38:50.762Z,99.90
2023-04-22T05:41:37.317Z,99.90
2023-04-22T05:44:23.922Z,99.90
2023-04-22T05:47:10.294Z,99.90
2023-04-22T05:49:56.821Z,99.90
2023-04-22T05:52:44.538Z,99.90
2023-04-22T05:55:31.931Z,99.90
2023-04-22T05:58:18.503Z,99.90
2023-04-22T06:01:05.481Z,99.90
2023-04-22T06:03:52.761Z,99.90
2023-04-22T06:06:39.629Z,99.90
2023-04-22T06:09:27.399Z,99.90
2023-04-22T06:12:14.230Z,99.90
2023-04-22T06:15:00.778Z,99.90
2023-04-22T06:17:49.169Z,99.90
2023-04-22T06:20:36.566Z,99.90
2023-04-22T06:23:23.134Z,99.90
2023-04-22T06:26:10.873Z,99.90
2023-04-22T06:28:57.780Z,99.90
2023-04-22T06:31:44.302Z,99.90
2023-04-22T06:34:31.232Z,99.90
2023-04-22T06:37:17.537Z,99.90
2023-04-22T06:40:04.055Z,99.90
2023-04-22T06:42:52.183Z,99.90
2023-04-22T06:45:38.634Z,99.90
2023-04-22T06:48:27.387Z,99.90
2023-04-22T06:51:13.846Z,99.90
2023-04-22T06:54:00.521Z,99.90
2023-04-22T06:56:47.003Z,99.90
2023-04-22T06:59:35.041Z,99.90
2023-04-22T07:02:22.650Z,99.90
2023-04-22T07:05:10.113Z,99.90
2023-04-22T07:07:56.537Z,99.90
2023-04-22T07:10:42.837Z,99.80
2023-04-22T07:13:29.289Z,99.90
2023-04-22T07:16:17.132Z,99.90
2023-04-22T07:19:04.773Z,99.80
2023-04-22T07:21:51.248Z,99.70
2023-04-22T07:24:39.009Z,99.50
2023-04-22T07:27:26.682Z,99.10
2023-04-22T07:30:14.422Z,99.40
2023-04-22T07:33:02.534Z,99.60
2023-04-22T07:35:49.597Z,99.60
2023-04-22T07:38:36.305Z,99.20
2023-04-22T07:41:22.915Z,99.20
2023-04-22T07:44:10.548Z,99.30
2023-04-22T07:46:56.888Z,98.90
2023-04-22T07:49:45.556Z,98.70
2023-04-22T07:52:31.873Z,98.90
2023-04-22T07:55:18.379Z,98.70
2023-04-22T07:58:06.596Z,98.60
2023-04-22T08:00:53.519Z,98.40
2023-04-22T08:03:40.083Z,98.40
2023-04-22T08:06:28.473Z,97.90
2023-04-22T08:09:15.203Z,98.10
2023-04-22T08:12:02.769Z,97.70
2023-04-22T08:14:49.257Z,97.80
2023-04-22T08:17:36.140Z,97.90
2023-04-22T08:20:22.672Z,97.70
2023-04-22T08:23:10.816Z,97.60
2023-04-22T08:25:57.285Z,97.10
2023-04-22T08:28:43.993Z,97.40
2023-04-22T08:31:30.325Z,98.20
2023-04-22T08:34:16.882Z,97.80
2023-04-22T08:37:03.764Z,98.10
2023-04-22T08:39:52.235Z,96.90
2023-04-22T08:42:39.416Z,97.40
2023-04-22T08:45:26.105Z,96.20
2023-04-22T08:48:14.410Z,96.70
2023-04-22T08:51:01.435Z,97.40
2023-04-22T08:53:48.522Z,96.50
2023-04-22T08:56:37.070Z,97.20
2023-04-22T08:59:24.701Z,97.50
2023-04-22T09:02:20.322Z,96.30
2023-04-22T09:05:09.222Z,96.50
2023-04-22T09:07:57.949Z,96.90
2023-04-22T09:10:44.765Z,95.10
2023-04-22T09:13:34.582Z,96.20
2023-04-22T09:16:21.255Z,96.20
2023-04-22T09:19:12.001Z,95.30
2023-04-22T09:21:59.800Z,95.80
2023-04-22T09:24:51.064Z,95.50
2023-04-22T09:27:37.925Z,95.40
2023-04-22T09:30:28.069Z,95.80
2023-04-22T09:33:15.770Z,95.70
2023-04-22T09:36:10.330Z,95.70
2023-04-22T09:38:57.692Z,95.20
2023-04-22T09:41:44.472Z,94.40
2023-04-22T09:44:31.177Z,95.50
2023-04-22T09:47:19.172Z,95.00
2023-04-22T09:50:06.460Z,95.10
2023-04-22T09:52:57.332Z,94.50
2023-04-22T09:55:46.374Z,95.90
2023-04-22T09:58:32.773Z,95.00
2023-04-22T10:01:20.435Z,93.90
2023-04-22T10:04:09.879Z,92.60
2023-04-22T10:06:57.017Z,92.90
2023-04-22T10:09:43.794Z,92.60
2023-04-22T10:12:35.506Z,92.70
2023-04-22T10:15:23.881Z,92.20
2023-04-22T10:18:16.962Z,92.80
2023-04-22T10:21:05.915Z,93.00
2023-04-22T10:23:52.733Z,92.70
2023-04-22T10:26:44.331Z,92.50
2023-04-22T10:29:38.898Z,92.60
2023-04-22T10:32:27.227Z,91.60
2023-04-22T10:35:16.464Z,91.90
2023-04-22T10:38:09.088Z,91.10
2023-04-22T10:41:00.671Z,91.70
2023-04-22T10:43:48.199Z,91.90
2023-04-22T10:46:57.351Z,90.80
2023-04-22T10:49:45.389Z,91.40
2023-04-22T10:52:32.116Z,91.80
2023-04-22T10:55:21.380Z,91.30
2023-04-22T10:58:20.294Z,91.40
2023-04-22T11:01:16.127Z,91.50
2023-04-22T11:04:21.057Z,91.20
2023-04-22T11:07:15.071Z,91.00
2023-04-22T11:10:09.769Z,87.30
2023-04-22T11:12:58.751Z,87.80
2023-04-22T11:15:47.138Z,89.30
2023-04-22T11:18:34.257Z,86.50
2023-04-22T11:21:22.444Z,87.30
2023-04-22T11:24:11.085Z,89.30
2023-04-22T11:26:58.267Z,88.70
2023-04-22T11:30:00.224Z,88.10
2023-04-22T11:32:48.623Z,88.40
2023-04-22T11:35:36.073Z,89.40
2023-04-22T11:38:22.543Z,87.30
2023-04-22T11:41:10.229Z,83.60
2023-04-22T11:43:56.854Z,85.30
2023-04-22T11:46:46.782Z,87.60
2023-04-22T11:49:33.596Z,87.20
2023-04-22T11:52:20.848Z,87.50
2023-04-22T11:55:11.294Z,85.30
2023-04-22T11:57:59.721Z,87.70
2023-04-22T12:00:47.483Z,85.10
2023-04-22T12:03:36.080Z,86.30
2023-04-22T12:06:22.554Z,86.00
2023-04-22T12:09:11.999Z,86.90
2023-04-22T12:11:59.895Z,86.30
2023-04-22T12:14:47.085Z,85.00
2023-04-22T12:17:33.765Z,86.30
2023-04-22T12:20:22.990Z,86.90
2023-04-22T12:23:16.103Z,85.30
2023-04-22T12:26:02.775Z,85.80
2023-04-22T12:28:49.851Z,87.60
2023-04-22T12:31:38.567Z,85.50
2023-04-22T12:34:25.044Z,82.40
2023-04-22T12:37:12.815Z,83.80
2023-04-22T12:39:59.572Z,83.20
2023-04-22T12:42:45.906Z,83.50
2023-04-22T12:45:32.538Z,82.20
2023-04-22T12:48:19.462Z,82.90
2023-04-22T12:51:06.461Z,83.00
2023-04-22T12:53:54.924Z,83.20
2023-04-22T12:56:41.545Z,80.70
2023-04-22T12:59:27.942Z,78.30
2023-04-22T13:02:14.961Z,82.00
2023-04-22T13:05:01.913Z,80.80
2023-04-22T13:07:59.597Z,81.20
2023-04-22T13:10:54.355Z,82.00
2023-04-22T13:13:41.143Z,82.50
2023-04-22T13:16:27.736Z,82.10
2023-04-22T13:19:14.979Z,81.20
2023-04-22T13:22:01.264Z,80.90
2023-04-22T13:24:47.885Z,81.10
2023-04-22T13:27:35.725Z,81.60
2023-04-22T13:30:22.494Z,79.90
2023-04-22T13:33:08.953Z,78.40
2023-04-22T13:35:55.540Z,79.90
2023-04-22T13:38:42.123Z,80.20
2023-04-22T13:41:29.066Z,78.50
2023-04-22T13:44:16.848Z,79.90
2023-04-22T13:47:03.546Z,80.70
2023-04-22T13:49:49.933Z,80.00
2023-04-22T13:52:36.383Z,78.70
2023-04-22T13:55:22.864Z,80.30
2023-04-22T13:58:09.288Z,80.20
2023-04-22T14:00:57.318Z,82.30
2023-04-22T14:03:43.925Z,81.20
2023-04-22T14:06:30.823Z,81.60
2023-04-22T14:09:17.930Z,82.00
2023-04-22T14:12:05.295Z,82.60
2023-04-22T14:14:51.910Z,83.70
2023-04-22T14:17:40.149Z,84.10
2023-04-22T14:20:27.032Z,82.40
2023-04-22T14:23:13.838Z,82.30
2023-04-22T14:26:01.090Z,82.50
2023-04-22T14:28:47.343Z,82.40
2023-04-22T14:31:33.843Z,81.50
2023-04-22T14:34:21.685Z,79.90
2023-04-22T14:37:08.321Z,79.20
2023-04-22T14:39:54.839Z,78.40
2023-04-22T14:42:41.568Z,80.30
2023-04-22T14:45:30.388Z,79.70
2023-04-22T14:48:16.806Z,79.30
2023-04-22T14:51:04.965Z,79.10
2023-04-22T14:53:51.561Z,77.30
2023-04-22T14:56:38.198Z,80.70
2023-04-22T14:59:24.676Z,77.50
2023-04-22T15:02:16.029Z,78.70
2023-04-22T15:05:03.032Z,77.80
2023-04-22T15:07:50.777Z,78.30
2023-04-22T15:10:37.711Z,77.80
2023-04-22T15:13:24.069Z,78.60
2023-04-22T15:16:10.614Z,79.30
2023-04-22T15:18:57.029Z,79.00
2023-04-22T15:21:43.672Z,79.70
2023-04-22T15:24:31.972Z,79.40
2023-04-22T15:27:19.221Z,80.70
2023-04-22T15:30:08.035Z,80.60
2023-04-22T15:32:54.481Z,81.10
2023-04-22T15:35:42.508Z,79.40
2023-04-22T15:38:29.193Z,80.10
2023-04-22T15:41:16.899Z,80.10
2023-04-22T15:44:05.911Z,81.10
2023-04-22T15:46:54.038Z,78.30
2023-04-22T15:49:41.312Z,78.30
2023-04-22T15:52:27.969Z,79.40
2023-04-22T15:55:14.360Z,78.80
2023-04-22T15:58:02.674Z,77.30
2023-04-22T16:00:49.462Z,77.50
2023-04-22T16:03:36.451Z,78.50
2023-04-22T16:06:23.696Z,77.80
2023-04-22T16:09:10.453Z,78.70
2023-04-22T16:11:56.996Z,78.10
2023-04-22T16:14:45.525Z,77.00
2023-04-22T16:17:32.257Z,76.70
2023-04-22T16:20:18.711Z,76.30
2023-04-22T16:23:05.149Z,75.20
2023-04-22T16:25:51.717Z,72.40
2023-04-22T16:28:38.270Z,73.40
2023-04-22T16:31:26.188Z,74.20
2023-04-22T16:34:12.656Z,75.10
2023-04-22T16:36:59.077Z,76.70
2023-04-22T16:39:46.445Z,77.60
2023-04-22T16:42:33.000Z,77.60
2023-04-22T16:45:19.549Z,77.20
2023-04-22T16:48:07.264Z,78.90
2023-04-22T16:50:54.492Z,77.30
2023-04-22T16:53:41.198Z,76.70
2023-04-22T16:56:28.321Z,76.30
2023-04-22T16:59:15.130Z,76.20
2023-04-22T17:02:01.636Z,76.30
2023-04-22T17:04:49.922Z,76.80
2023-04-22T17:07:36.478Z,76.60
2023-04-22T17:10:22.961Z,77.30
2023-04-22T17:13:09.547Z,78.20
2023-04-22T17:15:56.107Z,78.20
2023-04-22T17:18:42.842Z,78.30
2023-04-22T17:21:31.241Z,78.80
2023-04-22T17:24:18.526Z,78.80
2023-04-22T17:27:06.287Z,79.50
2023-04-22T17:29:52.754Z,83.10
2023-04-22T17:32:39.710Z,86.60
2023-04-22T17:35:26.286Z,88.50
2023-04-22T17:38:14.128Z,90.10
2023-04-22T17:41:01.083Z,90.60
2023-04-22T17:43:47.480Z,90.90
2023-04-22T17:46:34.071Z,91.20
2023-04-22T17:49:20.990Z,92.10
2023-04-22T17:52:07.469Z,92.40
2023-04-22T17:54:55.906Z,93.10
2023-04-22T17:57:43.358Z,93.40
2023-04-22T18:00:30.338Z,93.70
2023-04-22T18:03:20.136Z,94.00
2023-04-22T18:06:07.324Z,93.60
2023-04-22T18:08:53.742Z,94.70
2023-04-22T18:11:41.602Z,95.40
2023-04-22T18:14:27.979Z,95.60
2023-04-22T18:17:14.580Z,95.70
2023-04-22T18:22:52.413Z,96.60
2023-04-22T18:25:38.889Z,96.80
2023-04-22T18:28:27.066Z,97.10
2023-04-22T18:31:13.818Z,97.30
2023-04-22T18:34:00.175Z,97.50
2023-04-22T18:36:46.719Z,97.60
2023-04-22T18:39:33.334Z,98.00
2023-04-22T18:42:19.865Z,98.00
2023-04-22T18:45:09.233Z,98.20
2023-04-22T18:47:55.781Z,98.60
2023-04-22T18:50:42.275Z,98.80
2023-04-22T18:53:28.682Z,98.90
2023-04-22T18:56:15.312Z,99.10
2023-04-22T18:59:01.684Z,98.90
2023-04-22T19:01:49.596Z,98.90
2023-04-22T19:04:36.328Z,99.00
2023-04-22T19:07:22.988Z,99.00
2023-04-22T19:10:10.437Z,99.10
2023-04-22T19:12:57.162Z,99.00
2023-04-22T19:15:43.812Z,98.90
2023-04-22T19:18:31.646Z,99.30
2023-04-22T19:21:19.801Z,99.20
2023-04-22T19:24:07.013Z,99.30
2023-04-22T19:26:54.893Z,99.30
2023-04-22T19:29:42.091Z,99.30
2023-04-22T19:32:28.933Z,99.20
2023-04-22T19:35:16.903Z,99.30
2023-04-22T19:38:03.327Z,99.30
2023-04-22T19:40:49.814Z,99.30
2023-04-22T19:43:37.355Z,99.20
2023-04-22T19:46:24.047Z,99.20
2023-04-22T19:49:11.134Z,99.20
2023-04-22T19:51:59.730Z,99.20
2023-04-22T19:54:48.542Z,99.40
2023-04-22T19:57:36.433Z,99.50
2023-04-22T20:00:23.204Z,99.30
2023-04-22T20:03:13.240Z,99.50
2023-04-22T20:06:00.853Z,99.60
2023-04-22T20:08:53.610Z,99.80
2023-04-22T20:11:40.203Z,99.80
2023-04-22T20:14:27.486Z,99.90
2023-04-22T20:17:14.508Z,99.90
2023-04-22T20:20:04.911Z,99.90
2023-04-22T20:22:54.323Z,99.90
2023-04-22T20:25:45.546Z,99.90
2023-04-22T20:28:46.555Z,99.90
2023-04-22T20:31:34.449Z,99.90
2023-04-22T20:34:21.827Z,99.90
2023-04-22T20:37:10.342Z,99.90
2023-04-22T20:39:57.795Z,99.90
2023-04-22T20:42:46.719Z,99.90
2023-04-22T20:45:33.076Z,99.90
2023-04-22T20:48:19.491Z,99.90
2023-04-22T20:51:06.307Z,99.90
2023-04-22T20:53:53.312Z,99.90
2023-04-22T20:56:39.703Z,99.90
2023-04-22T20:59:27.353Z,99.90
2023-04-22T21:02:14.053Z,99.90
2023-04-22T21:05:02.121Z,99.90
2023-04-22T21:07:53.239Z,99.90
2023-04-22T21:10:40.174Z,99.90
2023-04-22T21:13:28.873Z,99.90
2023-04-22T21:16:20.230Z,99.90
2023-04-22T21:19:08.266Z,99.90
2023-04-22T21:21:57.188Z,99.90
2023-04-22T21:24:45.544Z,99.90
2023-04-22T21:27:32.746Z,99.90
2023-04-22T21:30:19.986Z,99.90
2023-04-22T21:33:07.817Z,99.90
2023-04-22T21:35:54.697Z,99.90
2023-04-22T21:38:41.229Z,99.90
2023-04-22T21:41:27.585Z,99.90
2023-04-22T21:44:14.046Z,99.90
2023-04-22T21:47:00.616Z,99.90
2023-04-22T21:49:48.405Z,99.90
2023-04-22T21:52:35.186Z,99.90
2023-04-22T21:55:21.995Z,99.90
2023-04-22T21:58:08.424Z,99.90
2023-04-22T22:00:55.973Z,99.90
2023-04-22T22:03:42.656Z,99.90
2023-04-22T22:06:31.646Z,99.90
2023-04-22T22:09:18.167Z,99.90
2023-04-22T22:12:04.801Z,99.90
2023-04-22T22:14:51.478Z,99.90
2023-04-22T22:17:40.158Z,99.90
2023-04-22T22:20:27.033Z,99.90
2023-04-22T22:23:15.058Z,99.90
2023-04-22T22:26:01.346Z,99.90
2023-04-22T22:28:47.832Z,99.90
2023-04-22T22:31:34.506Z,99.90
2023-04-22T22:34:21.201Z,99.90
2023-04-22T22:37:07.821Z,99.90
2023-04-22T22:39:56.553Z,99.90
2023-04-22T22:42:42.988Z,99.90
2023-04-22T22:45:29.493Z,99.90
2023-04-22T22:48:16.472Z,99.90
2023-04-22T22:51:02.848Z,99.90
2023-04-22T22:53:49.193Z,99.90
2023-04-22T22:56:36.957Z,99.90
2023-04-22T22:59:23.195Z,99.90
2023-04-22T23:02:09.996Z,99.90
2023-04-22T23:04:56.857Z,99.90
2023-04-22T23:07:43.196Z,99.90
2023-04-22T23:10:29.713Z,99.90
2023-04-22T23:13:17.552Z,99.90
2023-04-22T23:16:04.555Z,99.90
2023-04-22T23:18:53.093Z,99.90
2023-04-22T23:21:41.952Z,99.90
2023-04-22T23:24:29.049Z,99.90
2023-04-22T23:27:16.659Z,99.90
2023-04-22T23:30:05.607Z,99.90
2023-04-22T23:32:57.916Z,99.90
2023-04-22T23:35:46.565Z,99.90
2023-04-22T23:38:33.273Z,99.90
2023-04-22T23:41:19.812Z,99.90
2023-04-22T23:44:06.469Z,99.90
2023-04-22T23:46:54.363Z,99.90
2023-04-22T23:49:41.570Z,99.90
2023-04-22T23:52:28.072Z,99.90
2023-04-22T23:55:16.105Z,99.90
2023-04-22T23:58:03.150Z,99.90
